KCRW Airport Diagram

We have created a template for each of the higher traffic airports in the vZID airspace. They include KCMH, KCRW, KCVG, KDAY, KIND, KLEX and KSDF. You wil find usefull information including the airport diagram, weather, and specific airport procedures.

KCRW Weather

[Source: ADDS]
METAR
KCRW 190754Z 00000KT 10SM OVC014 06/03 A3012 RMK AO2 SLP203 T00610028 =
TAF
KCRW 190538Z 1906/2006 00000KT P6SM OVC015 FM191200 00000KT 4SM BR BKN012 FM191400 12005KT P6SM SCT015 SCT150 FM191600 10005KT P6SM SCT150 =
JSN Epic template designed by JoomlaShine.com